sensor_id;sensor_type;location;lat;lon;timestamp;noise_LAeq;noise_LA_min;noise_LA_max;noise_LA01;noise_LA95
70077;Laerm;57448;51.490;5.436;2023-06-04T00:00:47;40.18;36.36;46.31;;
70077;Laerm;57448;51.490;5.436;2023-06-04T00:02:49;41.90;37.20;48.28;;
70077;Laerm;57448;51.490;5.436;2023-06-04T00:04:50;40.75;37.00;47.10;;
70077;Laerm;57448;51.490;5.436;2023-06-04T00:06:51;41.28;36.56;46.08;;
70077;Laerm;57448;51.490;5.436;2023-06-04T00:08:54;41.06;36.89;48.08;;
70077;Laerm;57448;51.490;5.436;2023-06-04T00:10:55;41.69;36.84;46.94;;
70077;Laerm;57448;51.490;5.436;2023-06-04T00:12:57;41.77;36.49;50.61;;
70077;Laerm;57448;51.490;5.436;2023-06-04T00:14:58;39.94;35.90;45.32;;
70077;Laerm;57448;51.490;5.436;2023-06-04T00:16:59;41.09;37.00;48.68;;
70077;Laerm;57448;51.490;5.436;2023-06-04T00:19:01;41.45;37.19;49.09;;
70077;Laerm;57448;51.490;5.436;2023-06-04T00:21:03;40.29;36.24;48.49;;
70077;Laerm;57448;51.490;5.436;2023-06-04T00:23:04;39.77;35.68;49.32;;
70077;Laerm;57448;51.490;5.436;2023-06-04T00:25:07;40.02;35.91;47.05;;
70077;Laerm;57448;51.490;5.436;2023-06-04T00:27:08;39.99;35.92;47.85;;
70077;Laerm;57448;51.490;5.436;2023-06-04T00:29:10;40.15;35.51;46.13;;
70077;Laerm;57448;51.490;5.436;2023-06-04T00:31:11;39.91;35.81;46.08;;
70077;Laerm;57448;51.490;5.436;2023-06-04T00:33:13;40.07;34.95;46.53;;
70077;Laerm;57448;51.490;5.436;2023-06-04T00:35:14;40.28;35.80;47.37;;
70077;Laerm;57448;51.490;5.436;2023-06-04T00:37:16;37.97;34.68;41.66;;
70077;Laerm;57448;51.490;5.436;2023-06-04T00:39:17;38.89;35.24;44.63;;
70077;Laerm;57448;51.490;5.436;2023-06-04T00:41:19;39.95;35.19;45.31;;
70077;Laerm;57448;51.490;5.436;2023-06-04T00:43:21;39.96;35.19;48.64;;
70077;Laerm;57448;51.490;5.436;2023-06-04T00:45:25;39.16;34.21;44.87;;
70077;Laerm;57448;51.490;5.436;2023-06-04T00:47:26;39.36;34.83;45.49;;
70077;Laerm;57448;51.490;5.436;2023-06-04T00:49:28;38.66;34.57;45.69;;
70077;Laerm;57448;51.490;5.436;2023-06-04T00:51:29;40.88;36.70;46.33;;
70077;Laerm;57448;51.490;5.436;2023-06-04T00:53:31;39.04;35.14;43.81;;
70077;Laerm;57448;51.490;5.436;2023-06-04T00:55:32;39.18;35.27;46.07;;
70077;Laerm;57448;51.490;5.436;2023-06-04T00:57:36;40.26;35.01;48.66;;
70077;Laerm;57448;51.490;5.436;2023-06-04T00:59:38;39.82;35.08;46.01;;
70077;Laerm;57448;51.490;5.436;2023-06-04T01:01:42;38.11;33.77;55.32;;
70077;Laerm;57448;51.490;5.436;2023-06-04T01:03:47;38.55;35.06;45.86;;
70077;Laerm;57448;51.490;5.436;2023-06-04T01:05:51;37.99;34.16;42.61;;
70077;Laerm;57448;51.490;5.436;2023-06-04T01:07:57;39.01;34.97;49.05;;
70077;Laerm;57448;51.490;5.436;2023-06-04T01:09:58;38.98;34.96;50.38;;
70077;Laerm;57448;51.490;5.436;2023-06-04T01:12:03;38.27;33.91;43.62;;
70077;Laerm;57448;51.490;5.436;2023-06-04T01:14:06;39.59;34.05;46.16;;
70077;Laerm;57448;51.490;5.436;2023-06-04T01:16:09;40.00;34.86;46.20;;
70077;Laerm;57448;51.490;5.436;2023-06-04T01:18:12;39.11;35.14;46.02;;
70077;Laerm;57448;51.490;5.436;2023-06-04T01:20:28;39.55;34.66;46.63;;
70077;Laerm;57448;51.490;5.436;2023-06-04T01:22:37;41.30;36.74;47.37;;
70077;Laerm;57448;51.490;5.436;2023-06-04T01:24:39;40.86;35.84;48.66;;
70077;Laerm;57448;51.490;5.436;2023-06-04T01:26:42;39.31;34.91;45.18;;
70077;Laerm;57448;51.490;5.436;2023-06-04T01:28:43;39.68;35.49;45.49;;
70077;Laerm;57448;51.490;5.436;2023-06-04T01:30:48;39.55;34.21;51.04;;
70077;Laerm;57448;51.490;5.436;2023-06-04T01:32:50;38.66;34.48;46.36;;
70077;Laerm;57448;51.490;5.436;2023-06-04T01:34:52;37.24;33.16;43.17;;
70077;Laerm;57448;51.490;5.436;2023-06-04T01:36:54;37.51;33.63;43.02;;
70077;Laerm;57448;51.490;5.436;2023-06-04T01:38:55;39.58;34.89;51.72;;
70077;Laerm;57448;51.490;5.436;2023-06-04T01:40:56;37.01;33.03;40.73;;
70077;Laerm;57448;51.490;5.436;2023-06-04T01:43:01;39.12;34.58;45.03;;
70077;Laerm;57448;51.490;5.436;2023-06-04T01:45:03;38.27;33.78;44.35;;
70077;Laerm;57448;51.490;5.436;2023-06-04T01:47:05;37.93;33.84;46.34;;
70077;Laerm;57448;51.490;5.436;2023-06-04T01:49:07;36.44;33.27;41.45;;
70077;Laerm;57448;51.490;5.436;2023-06-04T01:51:08;38.48;34.63;45.76;;
70077;Laerm;57448;51.490;5.436;2023-06-04T01:53:09;37.93;33.96;43.42;;
70077;Laerm;57448;51.490;5.436;2023-06-04T01:55:13;41.16;35.20;51.84;;
70077;Laerm;57448;51.490;5.436;2023-06-04T01:57:14;38.64;33.14;45.71;;
70077;Laerm;57448;51.490;5.436;2023-06-04T01:59:16;38.04;32.79;44.72;;
70077;Laerm;57448;51.490;5.436;2023-06-04T02:01:17;37.57;33.67;43.87;;
70077;Laerm;57448;51.490;5.436;2023-06-04T02:03:21;38.44;33.85;46.70;;
70077;Laerm;57448;51.490;5.436;2023-06-04T02:05:22;38.03;33.54;46.31;;
70077;Laerm;57448;51.490;5.436;2023-06-04T02:07:24;38.90;34.53;45.79;;
70077;Laerm;57448;51.490;5.436;2023-06-04T02:09:26;41.18;36.21;48.85;;
70077;Laerm;57448;51.490;5.436;2023-06-04T02:11:27;40.11;35.71;46.82;;
70077;Laerm;57448;51.490;5.436;2023-06-04T02:13:28;39.00;34.65;44.83;;
70077;Laerm;57448;51.490;5.436;2023-06-04T02:15:30;38.08;34.68;44.46;;
70077;Laerm;57448;51.490;5.436;2023-06-04T02:17:32;39.10;35.43;48.05;;
70077;Laerm;57448;51.490;5.436;2023-06-04T02:19:38;37.36;33.73;43.95;;
70077;Laerm;57448;51.490;5.436;2023-06-04T02:21:44;39.14;33.82;49.41;;
70077;Laerm;57448;51.490;5.436;2023-06-04T02:23:46;38.89;34.38;46.54;;
70077;Laerm;57448;51.490;5.436;2023-06-04T02:25:47;46.73;34.44;67.46;;
70077;Laerm;57448;51.490;5.436;2023-06-04T02:27:49;53.83;36.31;73.00;;
70077;Laerm;57448;51.490;5.436;2023-06-04T02:29:50;55.46;36.95;72.31;;
70077;Laerm;57448;51.490;5.436;2023-06-04T02:31:52;54.46;37.06;70.11;;
70077;Laerm;57448;51.490;5.436;2023-06-04T02:33:53;53.98;35.70;69.36;;
70077;Laerm;57448;51.490;5.436;2023-06-04T02:35:56;55.38;35.07;71.39;;
70077;Laerm;57448;51.490;5.436;2023-06-04T02:37:57;51.04;37.16;70.74;;
70077;Laerm;57448;51.490;5.436;2023-06-04T02:39:59;45.07;36.55;56.98;;
70077;Laerm;57448;51.490;5.436;2023-06-04T02:42:00;45.26;37.03;57.95;;
70077;Laerm;57448;51.490;5.436;2023-06-04T02:44:01;47.71;37.08;60.15;;
70077;Laerm;57448;51.490;5.436;2023-06-04T02:46:03;44.63;36.67;59.81;;
70077;Laerm;57448;51.490;5.436;2023-06-04T02:48:04;45.44;37.22;56.61;;
70077;Laerm;57448;51.490;5.436;2023-06-04T02:50:06;46.91;36.61;57.40;;
70077;Laerm;57448;51.490;5.436;2023-06-04T02:52:08;54.64;38.35;69.32;;
70077;Laerm;57448;51.490;5.436;2023-06-04T02:54:10;51.41;37.67;68.87;;
70077;Laerm;57448;51.490;5.436;2023-06-04T02:56:11;51.89;37.22;69.66;;
70077;Laerm;57448;51.490;5.436;2023-06-04T02:58:13;53.05;37.82;65.33;;
70077;Laerm;57448;51.490;5.436;2023-06-04T03:00:14;52.43;36.73;64.90;;
70077;Laerm;57448;51.490;5.436;2023-06-04T03:02:16;51.64;35.91;64.12;;
70077;Laerm;57448;51.490;5.436;2023-06-04T03:04:17;50.33;37.11;63.68;;
70077;Laerm;57448;51.490;5.436;2023-06-04T03:06:21;48.01;34.93;63.42;;
70077;Laerm;57448;51.490;5.436;2023-06-04T03:08:24;42.59;35.11;54.13;;
70077;Laerm;57448;51.490;5.436;2023-06-04T03:10:25;49.18;35.15;72.69;;
70077;Laerm;57448;51.490;5.436;2023-06-04T03:12:26;47.29;36.91;61.10;;
70077;Laerm;57448;51.490;5.436;2023-06-04T03:14:28;46.62;37.29;67.03;;
70077;Laerm;57448;51.490;5.436;2023-06-04T03:16:32;50.49;38.66;64.35;;
70077;Laerm;57448;51.490;5.436;2023-06-04T03:18:33;50.31;36.70;63.31;;
70077;Laerm;57448;51.490;5.436;2023-06-04T03:20:36;49.42;36.05;63.22;;
70077;Laerm;57448;51.490;5.436;2023-06-04T03:22:38;49.59;36.71;64.59;;
70077;Laerm;57448;51.490;5.436;2023-06-04T03:24:41;49.00;35.93;62.58;;
70077;Laerm;57448;51.490;5.436;2023-06-04T03:26:43;48.77;36.24;67.45;;
70077;Laerm;57448;51.490;5.436;2023-06-04T03:28:44;46.46;36.08;64.42;;
70077;Laerm;57448;51.490;5.436;2023-06-04T03:30:45;42.31;35.87;52.66;;
70077;Laerm;57448;51.490;5.436;2023-06-04T03:32:46;40.54;35.74;46.80;;
70077;Laerm;57448;51.490;5.436;2023-06-04T03:34:48;41.68;36.72;51.85;;
70077;Laerm;57448;51.490;5.436;2023-06-04T03:36:49;42.13;36.43;54.88;;
70077;Laerm;57448;51.490;5.436;2023-06-04T03:38:50;46.65;34.84;67.60;;
70077;Laerm;57448;51.490;5.436;2023-06-04T03:40:53;52.22;36.68;72.12;;
70077;Laerm;57448;51.490;5.436;2023-06-04T03:42:54;53.33;35.59;71.36;;
70077;Laerm;57448;51.490;5.436;2023-06-04T03:44:56;50.25;36.47;71.64;;
70077;Laerm;57448;51.490;5.436;2023-06-04T03:46:58;48.90;35.34;67.39;;
70077;Laerm;57448;51.490;5.436;2023-06-04T03:48:59;50.06;35.51;72.53;;
70077;Laerm;57448;51.490;5.436;2023-06-04T03:51:00;45.19;35.30;59.70;;
70077;Laerm;57448;51.490;5.436;2023-06-04T03:53:02;45.35;35.29;64.78;;
70077;Laerm;57448;51.490;5.436;2023-06-04T03:55:05;43.04;34.59;57.84;;
70077;Laerm;57448;51.490;5.436;2023-06-04T03:57:08;39.77;34.93;55.15;;
70077;Laerm;57448;51.490;5.436;2023-06-04T03:59:09;45.53;35.81;59.43;;
70077;Laerm;57448;51.490;5.436;2023-06-04T04:01:11;42.84;35.35;59.27;;
70077;Laerm;57448;51.490;5.436;2023-06-04T04:03:12;42.82;35.57;57.16;;
70077;Laerm;57448;51.490;5.436;2023-06-04T04:05:14;43.26;36.53;58.63;;
70077;Laerm;57448;51.490;5.436;2023-06-04T04:07:16;42.08;35.56;60.69;;
70077;Laerm;57448;51.490;5.436;2023-06-04T04:09:17;41.88;36.01;59.14;;
70077;Laerm;57448;51.490;5.436;2023-06-04T04:11:18;48.63;36.62;68.85;;
70077;Laerm;57448;51.490;5.436;2023-06-04T04:13:21;43.11;35.72;57.73;;
70077;Laerm;57448;51.490;5.436;2023-06-04T04:15:22;47.39;36.86;64.78;;
70077;Laerm;57448;51.490;5.436;2023-06-04T04:17:24;46.01;36.34;61.05;;
70077;Laerm;57448;51.490;5.436;2023-06-04T04:19:25;45.04;36.19;66.35;;
70077;Laerm;57448;51.490;5.436;2023-06-04T04:21:28;45.29;36.66;56.48;;
70077;Laerm;57448;51.490;5.436;2023-06-04T04:23:30;42.88;36.05;58.06;;
70077;Laerm;57448;51.490;5.436;2023-06-04T04:25:31;44.18;36.29;63.85;;
70077;Laerm;57448;51.490;5.436;2023-06-04T04:27:33;43.45;36.83;57.38;;
70077;Laerm;57448;51.490;5.436;2023-06-04T04:29:40;43.45;36.55;54.29;;
70077;Laerm;57448;51.490;5.436;2023-06-04T04:31:42;42.13;36.44;58.13;;
70077;Laerm;57448;51.490;5.436;2023-06-04T04:33:44;45.59;36.43;66.77;;
70077;Laerm;57448;51.490;5.436;2023-06-04T04:35:45;42.53;37.14;57.12;;
70077;Laerm;57448;51.490;5.436;2023-06-04T04:37:48;42.90;36.93;59.42;;
70077;Laerm;57448;51.490;5.436;2023-06-04T04:39:49;43.42;37.18;55.83;;
70077;Laerm;57448;51.490;5.436;2023-06-04T04:41:53;43.34;37.86;59.66;;
70077;Laerm;57448;51.490;5.436;2023-06-04T04:43:54;41.89;36.26;61.51;;
70077;Laerm;57448;51.490;5.436;2023-06-04T04:46:04;41.96;36.19;51.03;;
70077;Laerm;57448;51.490;5.436;2023-06-04T04:48:06;42.42;36.53;56.11;;
70077;Laerm;57448;51.490;5.436;2023-06-04T04:50:07;41.83;36.90;50.40;;
70077;Laerm;57448;51.490;5.436;2023-06-04T04:52:09;41.09;37.07;53.30;;
70077;Laerm;57448;51.490;5.436;2023-06-04T04:54:10;40.75;35.30;52.90;;
70077;Laerm;57448;51.490;5.436;2023-06-04T04:56:11;42.52;36.50;56.26;;
70077;Laerm;57448;51.490;5.436;2023-06-04T04:58:13;43.55;36.71;58.13;;
70077;Laerm;57448;51.490;5.436;2023-06-04T05:00:15;40.16;34.97;48.49;;
70077;Laerm;57448;51.490;5.436;2023-06-04T05:02:18;42.23;35.90;60.62;;
70077;Laerm;57448;51.490;5.436;2023-06-04T05:04:20;47.71;36.13;64.23;;
70077;Laerm;57448;51.490;5.436;2023-06-04T05:06:21;43.22;35.37;57.51;;
70077;Laerm;57448;51.490;5.436;2023-06-04T05:08:22;43.29;35.68;58.58;;
70077;Laerm;57448;51.490;5.436;2023-06-04T05:10:23;41.08;35.06;56.74;;
70077;Laerm;57448;51.490;5.436;2023-06-04T05:12:25;62.90;35.78;76.15;;
70077;Laerm;57448;51.490;5.436;2023-06-04T05:14:26;45.29;36.32;61.12;;
70077;Laerm;57448;51.490;5.436;2023-06-04T05:16:28;47.63;36.23;66.72;;
70077;Laerm;57448;51.490;5.436;2023-06-04T05:18:31;62.07;36.39;74.45;;
70077;Laerm;57448;51.490;5.436;2023-06-04T05:20:32;44.43;37.00;56.79;;
70077;Laerm;57448;51.490;5.436;2023-06-04T05:22:35;62.42;38.85;75.54;;
70077;Laerm;57448;51.490;5.436;2023-06-04T05:24:36;42.92;36.92;59.60;;
70077;Laerm;57448;51.490;5.436;2023-06-04T05:26:37;40.53;35.16;55.75;;
70077;Laerm;57448;51.490;5.436;2023-06-04T05:28:40;40.20;35.90;56.25;;
70077;Laerm;57448;51.490;5.436;2023-06-04T05:30:43;42.02;35.39;60.90;;
70077;Laerm;57448;51.490;5.436;2023-06-04T05:32:44;42.32;35.28;61.01;;
70077;Laerm;57448;51.490;5.436;2023-06-04T05:34:47;43.72;36.96;66.06;;
70077;Laerm;57448;51.490;5.436;2023-06-04T05:36:48;42.64;36.73;56.37;;
70077;Laerm;57448;51.490;5.436;2023-06-04T05:38:50;44.00;35.93;65.38;;
70077;Laerm;57448;51.490;5.436;2023-06-04T05:40:57;43.13;36.71;59.84;;
70077;Laerm;57448;51.490;5.436;2023-06-04T05:42:58;42.51;37.07;54.86;;
70077;Laerm;57448;51.490;5.436;2023-06-04T05:44:59;43.39;37.42;58.74;;
70077;Laerm;57448;51.490;5.436;2023-06-04T05:47:01;41.10;35.06;51.40;;
70077;Laerm;57448;51.490;5.436;2023-06-04T05:49:02;47.65;36.84;63.20;;
70077;Laerm;57448;51.490;5.436;2023-06-04T05:51:05;64.17;38.31;76.77;;
70077;Laerm;57448;51.490;5.436;2023-06-04T05:53:06;43.71;36.01;58.42;;
70077;Laerm;57448;51.490;5.436;2023-06-04T05:55:08;63.39;37.10;76.73;;
70077;Laerm;57448;51.490;5.436;2023-06-04T05:57:10;42.80;35.28;63.77;;
70077;Laerm;57448;51.490;5.436;2023-06-04T05:59:11;51.27;35.72;72.62;;
70077;Laerm;57448;51.490;5.436;2023-06-04T06:01:12;54.50;36.32;74.72;;
70077;Laerm;57448;51.490;5.436;2023-06-04T06:03:14;60.12;36.72;73.99;;
70077;Laerm;57448;51.490;5.436;2023-06-04T06:05:17;54.40;36.79;70.55;;
70077;Laerm;57448;51.490;5.436;2023-06-04T06:07:19;53.70;34.88;68.46;;
70077;Laerm;57448;51.490;5.436;2023-06-04T06:09:21;51.54;35.35;70.32;;
70077;Laerm;57448;51.490;5.436;2023-06-04T06:11:22;42.95;34.60;59.70;;
70077;Laerm;57448;51.490;5.436;2023-06-04T06:13:23;62.92;38.16;77.54;;
70077;Laerm;57448;51.490;5.436;2023-06-04T06:15:25;41.05;36.38;53.29;;
70077;Laerm;57448;51.490;5.436;2023-06-04T06:17:26;43.72;34.99;61.06;;
70077;Laerm;57448;51.490;5.436;2023-06-04T06:19:28;58.38;36.35;74.63;;
70077;Laerm;57448;51.490;5.436;2023-06-04T06:21:30;60.96;36.73;76.47;;
70077;Laerm;57448;51.490;5.436;2023-06-04T06:23:32;42.23;35.40;54.69;;
70077;Laerm;57448;51.490;5.436;2023-06-04T06:25:34;45.32;34.93;64.07;;
70077;Laerm;57448;51.490;5.436;2023-06-04T06:27:35;50.67;35.59;65.24;;
70077;Laerm;57448;51.490;5.436;2023-06-04T06:29:36;47.54;35.79;68.59;;
70077;Laerm;57448;51.490;5.436;2023-06-04T06:31:39;51.04;34.83;64.91;;
70077;Laerm;57448;51.490;5.436;2023-06-04T06:33:40;51.59;35.25;67.06;;
70077;Laerm;57448;51.490;5.436;2023-06-04T06:35:42;50.20;35.02;65.72;;
70077;Laerm;57448;51.490;5.436;2023-06-04T06:37:46;47.79;35.36;65.14;;
70077;Laerm;57448;51.490;5.436;2023-06-04T06:39:48;45.89;34.32;61.71;;
70077;Laerm;57448;51.490;5.436;2023-06-04T06:41:50;46.56;34.36;62.33;;
70077;Laerm;57448;51.490;5.436;2023-06-04T06:43:51;45.81;35.28;60.22;;
70077;Laerm;57448;51.490;5.436;2023-06-04T06:45:53;46.46;35.06;62.25;;
70077;Laerm;57448;51.490;5.436;2023-06-04T06:47:55;45.75;35.90;62.40;;
70077;Laerm;57448;51.490;5.436;2023-06-04T06:49:56;46.46;35.22;59.98;;
70077;Laerm;57448;51.490;5.436;2023-06-04T06:51:57;43.75;35.07;57.10;;
70077;Laerm;57448;51.490;5.436;2023-06-04T06:53:58;43.31;34.70;57.09;;
70077;Laerm;57448;51.490;5.436;2023-06-04T06:56:01;44.44;34.26;60.24;;
70077;Laerm;57448;51.490;5.436;2023-06-04T06:58:02;45.70;34.86;66.17;;
70077;Laerm;57448;51.490;5.436;2023-06-04T07:00:04;45.07;34.77;62.27;;
70077;Laerm;57448;51.490;5.436;2023-06-04T07:02:06;41.53;34.11;54.39;;
70077;Laerm;57448;51.490;5.436;2023-06-04T07:04:08;41.09;34.90;54.19;;
70077;Laerm;57448;51.490;5.436;2023-06-04T07:06:09;60.66;38.73;74.56;;
70077;Laerm;57448;51.490;5.436;2023-06-04T07:08:10;43.91;33.88;61.25;;
70077;Laerm;57448;51.490;5.436;2023-06-04T07:10:12;41.41;34.18;55.79;;
70077;Laerm;57448;51.490;5.436;2023-06-04T07:12:15;56.72;34.43;74.10;;
70077;Laerm;57448;51.490;5.436;2023-06-04T07:14:16;60.99;36.62;75.84;;
70077;Laerm;57448;51.490;5.436;2023-06-04T07:16:18;60.18;36.11;75.69;;
70077;Laerm;57448;51.490;5.436;2023-06-04T07:18:20;61.57;36.06;75.30;;
70077;Laerm;57448;51.490;5.436;2023-06-04T07:20:21;40.47;34.39;58.29;;
70077;Laerm;57448;51.490;5.436;2023-06-04T07:22:22;40.52;34.58;58.61;;
70077;Laerm;57448;51.490;5.436;2023-06-04T07:24:24;40.62;34.33;57.35;;
70077;Laerm;57448;51.490;5.436;2023-06-04T07:26:25;48.28;34.62;65.80;;
70077;Laerm;57448;51.490;5.436;2023-06-04T07:28:31;58.31;37.61;72.79;;
70077;Laerm;57448;51.490;5.436;2023-06-04T07:30:33;42.00;35.18;66.23;;
70077;Laerm;57448;51.490;5.436;2023-06-04T07:32:34;41.69;34.76;68.00;;
70077;Laerm;57448;51.490;5.436;2023-06-04T07:34:36;43.22;34.31;70.45;;
70077;Laerm;57448;51.490;5.436;2023-06-04T07:36:38;41.76;34.33;69.57;;
70077;Laerm;57448;51.490;5.436;2023-06-04T07:38:40;40.83;34.67;59.02;;
70077;Laerm;57448;51.490;5.436;2023-06-04T07:40:41;40.86;36.77;54.94;;
70077;Laerm;57448;51.490;5.436;2023-06-04T07:42:42;42.09;34.90;59.77;;
70077;Laerm;57448;51.490;5.436;2023-06-04T07:44:45;40.37;34.82;54.49;;
70077;Laerm;57448;51.490;5.436;2023-06-04T07:46:46;41.79;34.77;54.53;;
70077;Laerm;57448;51.490;5.436;2023-06-04T07:48:48;43.39;35.88;59.01;;
70077;Laerm;57448;51.490;5.436;2023-06-04T07:50:49;46.31;36.73;61.66;;
70077;Laerm;57448;51.490;5.436;2023-06-04T07:52:51;60.82;36.24;75.62;;
70077;Laerm;57448;51.490;5.436;2023-06-04T07:54:52;41.72;34.49;59.51;;
70077;Laerm;57448;51.490;5.436;2023-06-04T07:56:53;43.02;35.32;66.28;;
70077;Laerm;57448;51.490;5.436;2023-06-04T07:58:56;42.16;36.85;53.98;;
70077;Laerm;57448;51.490;5.436;2023-06-04T08:00:58;46.42;36.35;65.25;;
70077;Laerm;57448;51.490;5.436;2023-06-04T08:03:00;56.33;38.78;70.12;;
70077;Laerm;57448;51.490;5.436;2023-06-04T08:05:01;41.08;35.98;51.44;;
70077;Laerm;57448;51.490;5.436;2023-06-04T08:07:03;41.12;36.46;53.14;;
70077;Laerm;57448;51.490;5.436;2023-06-04T08:09:05;41.85;36.70;54.08;;
70077;Laerm;57448;51.490;5.436;2023-06-04T08:11:07;40.18;35.56;53.16;;
70077;Laerm;57448;51.490;5.436;2023-06-04T08:13:08;40.93;35.62;54.52;;
70077;Laerm;57448;51.490;5.436;2023-06-04T08:15:10;40.98;35.49;61.10;;
70077;Laerm;57448;51.490;5.436;2023-06-04T08:17:13;63.01;35.18;78.50;;
70077;Laerm;57448;51.490;5.436;2023-06-04T08:19:14;46.96;36.01;60.53;;
70077;Laerm;57448;51.490;5.436;2023-06-04T08:21:24;41.33;35.55;58.41;;
70077;Laerm;57448;51.490;5.436;2023-06-04T08:23:25;41.37;35.22;54.98;;
70077;Laerm;57448;51.490;5.436;2023-06-04T08:25:27;41.68;35.93;54.66;;
70077;Laerm;57448;51.490;5.436;2023-06-04T08:27:29;42.27;36.08;55.70;;
70077;Laerm;57448;51.490;5.436;2023-06-04T08:29:31;42.35;35.23;59.47;;
70077;Laerm;57448;51.490;5.436;2023-06-04T08:31:32;42.07;35.45;60.42;;
70077;Laerm;57448;51.490;5.436;2023-06-04T08:33:35;62.00;36.88;76.34;;
70077;Laerm;57448;51.490;5.436;2023-06-04T08:35:36;41.80;36.30;58.22;;
70077;Laerm;57448;51.490;5.436;2023-06-04T08:37:37;41.54;35.37;59.57;;
70077;Laerm;57448;51.490;5.436;2023-06-04T08:39:39;40.57;36.25;54.54;;
70077;Laerm;57448;51.490;5.436;2023-06-04T08:41:42;41.96;36.40;60.94;;
70077;Laerm;57448;51.490;5.436;2023-06-04T08:43:44;40.92;35.98;55.07;;
70077;Laerm;57448;51.490;5.436;2023-06-04T08:45:45;41.66;36.79;60.41;;
70077;Laerm;57448;51.490;5.436;2023-06-04T08:47:50;63.37;37.66;77.91;;
70077;Laerm;57448;51.490;5.436;2023-06-04T08:49:53;45.77;37.91;76.80;;
70077;Laerm;57448;51.490;5.436;2023-06-04T08:51:56;57.79;36.90;73.91;;
70077;Laerm;57448;51.490;5.436;2023-06-04T08:53:57;42.18;35.36;66.33;;
70077;Laerm;57448;51.490;5.436;2023-06-04T08:55:59;46.52;36.67;71.26;;
70077;Laerm;57448;51.490;5.436;2023-06-04T08:58:00;41.53;36.63;54.56;;
70077;Laerm;57448;51.490;5.436;2023-06-04T09:00:04;58.38;38.06;76.51;;
70077;Laerm;57448;51.490;5.436;2023-06-04T09:02:07;57.70;38.49;74.52;;
70077;Laerm;57448;51.490;5.436;2023-06-04T09:04:08;61.87;37.96;78.70;;
70077;Laerm;57448;51.490;5.436;2023-06-04T09:06:11;41.37;37.27;50.52;;
70077;Laerm;57448;51.490;5.436;2023-06-04T09:08:13;44.04;38.83;53.57;;
70077;Laerm;57448;51.490;5.436;2023-06-04T09:10:17;43.64;38.61;57.10;;
70077;Laerm;57448;51.490;5.436;2023-06-04T09:12:21;57.12;37.75;70.74;;
70077;Laerm;57448;51.490;5.436;2023-06-04T09:14:24;62.00;38.45;79.82;;
70077;Laerm;57448;51.490;5.436;2023-06-04T09:16:25;54.86;39.72;72.00;;
70077;Laerm;57448;51.490;5.436;2023-06-04T09:18:27;52.58;38.15;68.22;;
70077;Laerm;57448;51.490;5.436;2023-06-04T09:20:28;43.95;37.46;58.48;;
70077;Laerm;57448;51.490;5.436;2023-06-04T09:22:34;42.28;37.90;52.31;;
70077;Laerm;57448;51.490;5.436;2023-06-04T09:24:39;42.28;37.37;57.69;;
70077;Laerm;57448;51.490;5.436;2023-06-04T09:26:41;62.46;40.60;81.70;;
70077;Laerm;57448;51.490;5.436;2023-06-04T09:28:42;42.89;37.42;61.22;;
70077;Laerm;57448;51.490;5.436;2023-06-04T09:30:50;44.32;38.04;57.56;;
70077;Laerm;57448;51.490;5.436;2023-06-04T09:32:52;42.10;37.39;50.90;;
70077;Laerm;57448;51.490;5.436;2023-06-04T09:34:53;42.79;39.02;65.26;;
70077;Laerm;57448;51.490;5.436;2023-06-04T09:36:55;44.00;39.30;62.75;;
70077;Laerm;57448;51.490;5.436;2023-06-04T09:38:57;44.77;39.30;63.28;;
70077;Laerm;57448;51.490;5.436;2023-06-04T09:40:59;42.10;37.33;58.05;;
70077;Laerm;57448;51.490;5.436;2023-06-04T09:43:04;61.17;36.95;78.38;;
70077;Laerm;57448;51.490;5.436;2023-06-04T09:45:06;48.16;37.84;63.39;;
70077;Laerm;57448;51.490;5.436;2023-06-04T09:47:07;40.85;37.09;48.88;;
70077;Laerm;57448;51.490;5.436;2023-06-04T09:49:09;43.38;37.90;54.76;;
70077;Laerm;57448;51.490;5.436;2023-06-04T09:51:10;43.39;38.73;61.59;;
70077;Laerm;57448;51.490;5.436;2023-06-04T09:53:12;45.05;38.08;62.89;;
70077;Laerm;57448;51.490;5.436;2023-06-04T09:55:19;44.01;37.96;59.23;;
70077;Laerm;57448;51.490;5.436;2023-06-04T09:57:22;45.08;38.28;74.52;;
70077;Laerm;57448;51.490;5.436;2023-06-04T09:59:23;41.58;37.53;54.95;;
70077;Laerm;57448;51.490;5.436;2023-06-04T10:01:26;41.23;36.67;52.59;;
70077;Laerm;57448;51.490;5.436;2023-06-04T10:03:29;43.01;37.35;54.50;;
70077;Laerm;57448;51.490;5.436;2023-06-04T10:05:32;44.38;37.83;59.37;;
70077;Laerm;57448;51.490;5.436;2023-06-04T10:07:34;42.52;36.27;55.41;;
70077;Laerm;57448;51.490;5.436;2023-06-04T10:09:38;40.98;36.43;57.69;;
70077;Laerm;57448;51.490;5.436;2023-06-04T10:11:48;41.92;37.79;50.68;;
70077;Laerm;57448;51.490;5.436;2023-06-04T10:13:53;42.90;38.81;53.87;;
70077;Laerm;57448;51.490;5.436;2023-06-04T10:15:56;42.90;38.19;58.16;;
70077;Laerm;57448;51.490;5.436;2023-06-04T10:17:58;42.99;38.24;55.75;;
70077;Laerm;57448;51.490;5.436;2023-06-04T10:19:59;43.36;37.88;56.97;;
70077;Laerm;57448;51.490;5.436;2023-06-04T10:22:06;41.19;37.24;59.08;;
70077;Laerm;57448;51.490;5.436;2023-06-04T10:24:09;41.86;36.45;59.52;;
70077;Laerm;57448;51.490;5.436;2023-06-04T10:26:13;40.58;35.85;54.07;;
70077;Laerm;57448;51.490;5.436;2023-06-04T10:28:16;63.46;36.08;81.55;;
70077;Laerm;57448;51.490;5.436;2023-06-04T10:30:19;46.56;36.58;63.58;;
70077;Laerm;57448;51.490;5.436;2023-06-04T10:32:20;41.35;35.94;57.99;;
70077;Laerm;57448;51.490;5.436;2023-06-04T10:34:21;40.96;35.79;55.95;;
70077;Laerm;57448;51.490;5.436;2023-06-04T10:36:23;41.09;36.05;62.83;;
70077;Laerm;57448;51.490;5.436;2023-06-04T10:38:25;56.94;37.90;73.90;;
70077;Laerm;57448;51.490;5.436;2023-06-04T10:40:30;40.56;37.04;53.53;;
70077;Laerm;57448;51.490;5.436;2023-06-04T10:42:37;41.44;37.32;54.52;;
70077;Laerm;57448;51.490;5.436;2023-06-04T10:44:45;42.15;37.89;50.76;;
70077;Laerm;57448;51.490;5.436;2023-06-04T10:46:46;62.36;39.26;79.92;;
70077;Laerm;57448;51.490;5.436;2023-06-04T10:48:48;43.01;36.98;61.78;;
70077;Laerm;57448;51.490;5.436;2023-06-04T10:50:49;46.00;37.95;60.81;;
70077;Laerm;57448;51.490;5.436;2023-06-04T10:52:51;56.65;38.00;73.52;;
70077;Laerm;57448;51.490;5.436;2023-06-04T10:55:02;44.89;37.66;62.00;;
70077;Laerm;57448;51.490;5.436;2023-06-04T10:57:10;57.45;37.05;79.91;;
70077;Laerm;57448;51.490;5.436;2023-06-04T10:59:15;44.98;36.95;67.30;;
70077;Laerm;57448;51.490;5.436;2023-06-04T11:01:23;43.53;36.94;63.86;;
70077;Laerm;57448;51.490;5.436;2023-06-04T11:03:34;44.44;36.92;61.86;;
70077;Laerm;57448;51.490;5.436;2023-06-04T11:05:36;46.86;35.92;63.25;;
70077;Laerm;57448;51.490;5.436;2023-06-04T11:07:41;47.08;36.13;66.44;;
70077;Laerm;57448;51.490;5.436;2023-06-04T11:09:47;43.91;36.63;56.10;;
70077;Laerm;57448;51.490;5.436;2023-06-04T11:11:56;44.65;38.05;59.06;;
70077;Laerm;57448;51.490;5.436;2023-06-04T11:14:06;41.26;36.85;55.53;;
70077;Laerm;57448;51.490;5.436;2023-06-04T11:16:14;39.39;36.25;49.81;;
70077;Laerm;57448;51.490;5.436;2023-06-04T11:18:17;62.53;36.40;77.94;;
70077;Laerm;57448;51.490;5.436;2023-06-04T11:20:19;40.91;36.48;51.41;;
70077;Laerm;57448;51.490;5.436;2023-06-04T11:22:21;42.09;38.08;47.72;;
70077;Laerm;57448;51.490;5.436;2023-06-04T11:24:23;57.31;38.07;75.57;;